Time;durP1;ratioP1;P1;durP2;ratioP2;P2;SDS_P1;SDS_P2;PMS_P1;PMS_P2;Temp;Humidity;BMP_temperature;BMP_pressure;BME280_temperature;BME280_humidity;BME280_pressure;Samples;Min_cycle;Max_cycle;Signal;HPM_P1;HPM_P2
2022/12/06 00:01:41;;;;;;;10.65;3.25;;;4.90;99.90;;;;;;5010484;28;20054;-72
2022/12/06 00:04:10;;;;;;;6.70;3.05;;;4.90;99.90;;;;;;5010074;28;20045;-72
2022/12/06 00:06:41;;;;;;;13.95;3.63;;;4.80;99.90;;;;;;4992248;28;20089;-73
2022/12/06 00:09:08;;;;;;;16.25;3.53;;;4.90;99.90;;;;;;5010190;28;20050;-74
2022/12/06 00:11:35;;;;;;;10.68;3.33;;;4.90;99.90;;;;;;5009884;28;20497;-73
2022/12/06 00:14:04;;;;;;;8.75;3.60;;;4.90;99.90;;;;;;5010114;28;20389;-73
2022/12/06 00:16:31;;;;;;;12.45;3.58;;;4.80;99.90;;;;;;5009262;28;20050;-73
2022/12/06 00:18:57;;;;;;;9.20;3.53;;;4.80;99.90;;;;;;5009786;28;20088;-73
2022/12/06 00:21:27;;;;;;;10.15;3.20;;;4.80;99.90;;;;;;5009858;28;20053;-73
2022/12/06 00:23:58;;;;;;;9.27;3.50;;;4.80;99.90;;;;;;5009808;28;20050;-73
2022/12/06 00:26:25;;;;;;;12.30;3.45;;;4.80;99.90;;;;;;5009301;28;20535;-74
2022/12/06 00:28:55;;;;;;;7.88;3.60;;;4.80;99.90;;;;;;4992178;28;20053;-74
2022/12/06 00:31:23;;;;;;;9.02;3.60;;;4.80;99.90;;;;;;5009612;28;20482;-75
2022/12/06 00:33:49;;;;;;;9.73;3.45;;;4.80;99.90;;;;;;4975304;28;20100;-74
2022/12/06 00:36:17;;;;;;;9.82;3.33;;;4.80;99.90;;;;;;5009497;28;20056;-74
2022/12/06 00:38:43;;;;;;;11.50;3.25;;;4.80;99.90;;;;;;4991505;28;20145;-75
2022/12/06 00:41:12;;;;;;;11.68;3.70;;;4.80;99.90;;;;;;5009635;28;20116;-74
2022/12/06 00:43:39;;;;;;;12.23;3.50;;;4.70;99.90;;;;;;5009569;28;20057;-74
2022/12/06 00:46:07;;;;;;;9.73;3.55;;;4.70;99.90;;;;;;5009491;28;20053;-73
2022/12/06 00:48:33;;;;;;;9.63;3.35;;;4.70;99.90;;;;;;5009243;28;20050;-73
2022/12/06 00:50:59;;;;;;;10.85;3.28;;;4.70;99.90;;;;;;5009629;28;20103;-73
2022/12/06 00:53:25;;;;;;;11.07;2.85;;;4.70;99.90;;;;;;5009677;28;20038;-72
2022/12/06 00:55:51;;;;;;;8.43;3.20;;;4.70;99.90;;;;;;4991912;28;20062;-72
2022/12/06 00:58:17;;;;;;;9.13;4.10;;;4.60;99.90;;;;;;5009129;28;20057;-73
2022/12/06 01:00:43;;;;;;;7.30;3.22;;;4.60;99.90;;;;;;5009426;28;20137;-73
2022/12/06 01:03:09;;;;;;;10.60;3.20;;;4.50;99.90;;;;;;4991911;28;20125;-73
2022/12/06 01:05:47;;;;;;;9.50;3.67;;;4.50;99.90;;;;;;4994958;28;20120;-73
2022/12/06 01:08:14;;;;;;;11.63;3.83;;;4.50;99.90;;;;;;4995460;28;20132;-74
2022/12/06 01:10:40;;;;;;;9.57;3.45;;;4.50;99.90;;;;;;5012465;28;20128;-75
2022/12/06 01:13:06;;;;;;;7.32;2.70;;;4.50;99.90;;;;;;4995271;28;20189;-74
2022/12/06 01:15:35;;;;;;;6.60;2.90;;;4.50;99.90;;;;;;4995277;28;20492;-76
2022/12/06 01:18:01;;;;;;;10.23;3.03;;;4.60;99.90;;;;;;5012731;28;20049;-73
2022/12/06 01:20:27;;;;;;;10.32;2.72;;;4.50;99.90;;;;;;5012097;28;20057;-73
2022/12/06 01:22:52;;;;;;;11.00;2.28;;;4.60;99.90;;;;;;5012705;28;20059;-74
2022/12/06 01:25:18;;;;;;;7.65;2.33;;;4.50;99.90;;;;;;4994835;28;20136;-75
2022/12/06 01:27:44;;;;;;;8.80;2.25;;;4.80;99.90;;;;;;4978721;28;20065;-73
2022/12/06 01:30:10;;;;;;;9.25;2.20;;;4.60;99.90;;;;;;5012412;28;20048;-75
2022/12/06 01:32:35;;;;;;;9.57;2.47;;;4.50;99.90;;;;;;4994629;28;20492;-73
2022/12/06 01:35:01;;;;;;;9.68;2.05;;;4.50;99.90;;;;;;4994527;28;20447;-75
2022/12/06 01:37:26;;;;;;;11.57;2.20;;;4.50;99.90;;;;;;4994766;28;20053;-74
2022/12/06 01:39:52;;;;;;;8.85;2.15;;;4.50;99.90;;;;;;5012193;28;20302;-73
2022/12/06 01:42:17;;;;;;;6.28;1.92;;;4.50;99.90;;;;;;5012288;28;20397;-73
2022/12/06 01:44:50;;;;;;;7.03;2.25;;;4.50;99.90;;;;;;5012119;28;20046;-74
2022/12/06 01:47:29;;;;;;;9.35;1.90;;;4.50;99.90;;;;;;4994806;28;20053;-74
2022/12/06 01:50:08;;;;;;;8.00;1.98;;;4.60;99.90;;;;;;5011436;28;20042;-73
2022/12/06 01:52:41;;;;;;;8.77;2.13;;;4.60;99.90;;;;;;5012322;28;20058;-73
2022/12/06 01:55:09;;;;;;;7.18;1.60;;;4.50;99.90;;;;;;5012142;28;20041;-73
2022/12/06 01:57:34;;;;;;;5.57;2.20;;;4.50;99.90;;;;;;4994598;28;20064;-73
2022/12/06 02:00:00;;;;;;;6.55;2.47;;;4.50;99.90;;;;;;5012183;28;20037;-74
2022/12/06 02:02:26;;;;;;;7.50;2.58;;;4.50;99.90;;;;;;5011817;28;20054;-75
2022/12/06 02:04:52;;;;;;;7.47;2.33;;;4.50;99.90;;;;;;5011791;28;20049;-75
2022/12/06 02:07:20;;;;;;;5.82;2.47;;;4.50;99.90;;;;;;5011695;28;20037;-73
2022/12/06 02:09:48;;;;;;;6.47;3.13;;;4.50;99.90;;;;;;5011816;28;20042;-75
2022/12/06 02:12:14;;;;;;;8.05;2.08;;;4.50;99.90;;;;;;4994020;28;20054;-73
2022/12/06 02:14:43;;;;;;;6.97;2.38;;;4.50;99.90;;;;;;5011368;28;20050;-74
2022/12/06 02:17:14;;;;;;;8.13;2.45;;;4.40;99.90;;;;;;5011161;28;20049;-73
2022/12/06 02:19:42;;;;;;;5.60;2.22;;;4.40;99.90;;;;;;5011548;28;20042;-73
2022/12/06 02:22:30;;;;;;;6.53;1.90;;;4.40;99.90;;;;;;4993950;28;20068;-73
2022/12/06 02:25:09;;;;;;;12.10;2.08;;;4.40;99.90;;;;;;5011683;28;20048;-75
2022/12/06 02:28:06;;;;;;;5.55;1.95;;;4.40;99.90;;;;;;4993762;28;20042;-73
2022/12/06 02:30:33;;;;;;;5.13;1.55;;;4.40;99.90;;;;;;4992994;28;20489;-74
2022/12/06 02:33:14;;;;;;;5.43;1.70;;;4.40;99.90;;;;;;5011697;28;20088;-74
2022/12/06 02:35:47;;;;;;;5.40;2.15;;;4.40;99.90;;;;;;5011467;28;20049;-74
2022/12/06 02:38:26;;;;;;;3.60;1.27;;;4.40;99.90;;;;;;5011284;28;20045;-74
2022/12/06 02:41:00;;;;;;;5.38;1.52;;;4.40;99.90;;;;;;5011128;28;20050;-73
2022/12/06 02:43:55;;;;;;;6.97;2.25;;;4.40;99.90;;;;;;5011302;28;20042;-73
2022/12/06 02:46:22;;;;;;;2.78;1.20;;;4.30;99.90;;;;;;4969376;28;20145;-74
2022/12/06 02:48:51;;;;;;;9.35;1.50;;;4.30;99.90;;;;;;4969138;28;20070;-75
2022/12/06 02:51:18;;;;;;;7.10;1.65;;;4.30;99.90;;;;;;4968772;28;20661;-73
2022/12/06 02:53:49;;;;;;;3.90;1.30;;;4.30;99.90;;;;;;4953443;28;20078;-74
2022/12/06 02:56:16;;;;;;;8.43;1.50;;;4.30;99.90;;;;;;4969169;28;20050;-74
2022/12/06 02:58:41;;;;;;;10.25;1.67;;;4.30;99.90;;;;;;4953250;28;20051;-73
2022/12/06 03:01:15;;;;;;;5.85;1.63;;;4.30;99.90;;;;;;4967546;28;20078;-73
2022/12/06 03:04:30;;;;;;;3.72;1.35;;;4.30;99.90;;;;;;4966770;28;20511;-73
2022/12/06 03:07:12;;;;;;;7.20;1.70;;;4.30;99.90;;;;;;4968638;28;20417;-73
2022/12/06 03:10:10;;;;;;;4.90;1.73;;;4.30;99.90;;;;;;4952118;28;20063;-74
2022/12/06 03:13:01;;;;;;;7.57;1.75;;;4.30;99.90;;;;;;4967278;28;20105;-76
2022/12/06 03:15:35;;;;;;;5.03;1.30;;;4.30;99.90;;;;;;4953182;28;20561;-73
2022/12/06 03:18:30;;;;;;;6.07;1.55;;;4.30;99.90;;;;;;4968915;28;20125;-73
2022/12/06 03:21:07;;;;;;;4.50;1.60;;;4.30;99.90;;;;;;4930373;29;20066;-73
2022/12/06 03:23:39;;;;;;;8.00;1.88;;;4.30;99.90;;;;;;4928637;29;20067;-73
2022/12/06 03:26:09;;;;;;;9.18;2.03;;;4.20;99.90;;;;;;4930300;29;20056;-73
2022/12/06 03:28:36;;;;;;;9.40;1.83;;;4.20;99.90;;;;;;4930168;29;20048;-73
2022/12/06 03:31:04;;;;;;;2.90;1.40;;;4.30;99.90;;;;;;4930247;29;20067;-73
2022/12/06 03:33:33;;;;;;;6.25;1.75;;;4.30;99.90;;;;;;4935843;28;20050;-73
2022/12/06 03:36:00;;;;;;;6.03;2.20;;;4.30;99.90;;;;;;4967442;28;20105;-74
2022/12/06 03:38:31;;;;;;;4.75;1.90;;;4.30;99.90;;;;;;4968180;28;20051;-73
2022/12/06 03:41:02;;;;;;;9.77;2.13;;;4.20;99.90;;;;;;4968502;28;20050;-73
2022/12/06 03:43:28;;;;;;;6.53;1.45;;;4.20;99.90;;;;;;4950022;28;20862;-73
2022/12/06 03:46:12;;;;;;;5.20;1.88;;;4.20;99.90;;;;;;4967714;28;20098;-75
2022/12/06 03:48:46;;;;;;;6.43;1.52;;;4.20;99.90;;;;;;4952304;28;20050;-74
2022/12/06 03:51:19;;;;;;;5.80;1.70;;;3.80;99.90;;;;;;4966432;28;20066;-75
2022/12/06 03:53:52;;;;;;;7.45;1.67;;;4.20;99.90;;;;;;4959455;28;20177;-72
2022/12/06 03:56:18;;;;;;;5.65;1.58;;;4.20;99.90;;;;;;4952196;28;20142;-73
2022/12/06 03:58:44;;;;;;;7.95;1.42;;;4.20;99.90;;;;;;5020011;28;20100;-73
2022/12/06 04:01:10;;;;;;;5.22;1.55;;;3.90;99.90;;;;;;5022333;28;20096;-74
2022/12/06 04:03:35;;;;;;;3.78;1.52;;;4.10;99.90;;;;;;5009797;28;20497;-72
2022/12/06 04:06:05;;;;;;;7.75;1.70;;;4.00;99.90;;;;;;5009791;28;20050;-73
2022/12/06 04:08:31;;;;;;;4.43;1.50;;;4.00;99.90;;;;;;5019670;28;20041;-73
2022/12/06 04:10:57;;;;;;;3.92;1.88;;;4.00;99.90;;;;;;5028905;28;20045;-73
2022/12/06 04:13:23;;;;;;;6.35;1.80;;;3.90;99.90;;;;;;5011887;28;20049;-73
2022/12/06 04:15:49;;;;;;;7.10;1.65;;;3.80;99.90;;;;;;5024003;28;20046;-74
2022/12/06 04:18:17;;;;;;;5.00;1.75;;;3.70;99.90;;;;;;5009650;28;20054;-72
2022/12/06 04:23:45;;;;;;;8.48;1.83;;;3.60;99.90;;;;;;5011286;28;20153;-73
2022/12/06 04:26:14;;;;;;;4.45;1.70;;;3.60;99.90;;;;;;5011895;28;20095;-73
2022/12/06 04:39:38;;;;;;;3.92;1.90;;;3.30;99.90;;;;;;5029908;28;20390;-72
2022/12/06 04:44:49;;;;;;;3.83;1.63;;;3.20;99.90;;;;;;5032945;28;20750;-73
2022/12/06 04:47:15;;;;;;;4.88;1.90;;;3.10;99.90;;;;;;5020983;28;20132;-72
2022/12/06 04:49:40;;;;;;;5.70;1.80;;;3.10;99.90;;;;;;5002083;28;20501;-73
2022/12/06 04:52:07;;;;;;;8.35;2.10;;;3.00;99.90;;;;;;5014920;28;20064;-73
2022/12/06 04:54:33;;;;;;;4.63;2.10;;;2.90;99.90;;;;;;5015114;28;20057;-73
2022/12/06 04:56:59;;;;;;;4.03;1.95;;;2.90;99.90;;;;;;5032872;28;20041;-73
2022/12/06 04:59:26;;;;;;;6.38;1.67;;;2.80;99.90;;;;;;5015357;28;20053;-72
2022/12/06 05:01:52;;;;;;;3.58;1.83;;;2.80;99.90;;;;;;5030497;28;20059;-72
2022/12/06 05:04:18;;;;;;;6.55;1.50;;;2.80;99.90;;;;;;5032481;28;20127;-73
2022/12/06 05:06:44;;;;;;;5.68;1.95;;;2.80;99.90;;;;;;5032506;28;20045;-73
2022/12/06 05:09:09;;;;;;;5.25;2.03;;;2.80;99.90;;;;;;5032457;28;20431;-74
2022/12/06 05:11:35;;;;;;;5.60;2.13;;;2.70;99.90;;;;;;5013091;28;20184;-73
2022/12/06 05:14:02;;;;;;;5.93;2.33;;;2.70;99.90;;;;;;5032862;28;20087;-72
2022/12/06 05:16:27;;;;;;;9.32;2.53;;;2.80;99.90;;;;;;5032497;28;20128;-73
2022/12/06 05:18:53;;;;;;;7.28;2.47;;;2.80;99.90;;;;;;5032246;28;20116;-74
2022/12/06 05:21:22;;;;;;;8.05;2.20;;;2.80;99.90;;;;;;5030552;28;20084;-72
2022/12/06 05:23:48;;;;;;;8.07;2.35;;;2.80;99.90;;;;;;5032161;28;20085;-73
2022/12/06 05:26:17;;;;;;;10.52;3.00;;;2.80;99.90;;;;;;5014124;28;20065;-72
2022/12/06 05:28:44;;;;;;;7.57;2.50;;;2.80;99.90;;;;;;5032439;28;20115;-73
2022/12/06 05:31:10;;;;;;;7.05;2.40;;;2.80;99.90;;;;;;5030491;28;20485;-73
2022/12/06 05:33:38;;;;;;;6.90;2.20;;;2.80;99.90;;;;;;5030233;28;20416;-72
2022/12/06 05:36:20;;;;;;;7.07;2.85;;;2.80;99.90;;;;;;5031588;28;20093;-72
2022/12/06 05:38:47;;;;;;;5.70;2.33;;;2.80;99.90;;;;;;5032179;28;20053;-72
2022/12/06 05:41:12;;;;;;;5.50;2.53;;;2.70;99.90;;;;;;5032639;28;20128;-72
2022/12/06 05:43:38;;;;;;;5.13;2.10;;;2.70;99.90;;;;;;5024891;28;20513;-73
2022/12/06 05:46:04;;;;;;;5.10;2.42;;;2.70;99.90;;;;;;4997656;28;20085;-72
2022/12/06 05:48:30;;;;;;;5.28;2.35;;;2.70;99.90;;;;;;4993937;28;20047;-73
2022/12/06 05:50:56;;;;;;;6.70;2.72;;;2.70;99.90;;;;;;5012000;28;20105;-74
2022/12/06 05:53:22;;;;;;;4.15;2.10;;;2.60;99.90;;;;;;5012251;28;20045;-72
2022/12/06 05:55:48;;;;;;;3.95;2.20;;;2.60;99.90;;;;;;5010734;28;20053;-73
2022/12/06 05:58:14;;;;;;;8.93;2.47;;;2.50;99.90;;;;;;5012035;28;20425;-73
2022/12/06 06:00:39;;;;;;;8.65;2.38;;;2.50;99.90;;;;;;4995586;28;20053;-73
2022/12/06 06:03:05;;;;;;;6.93;2.10;;;2.50;99.90;;;;;;5031468;28;20432;-73
2022/12/06 06:05:31;;;;;;;4.85;2.20;;;2.40;99.90;;;;;;5011875;28;20053;-72
2022/12/06 06:07:57;;;;;;;3.20;1.90;;;1.80;99.90;;;;;;5013886;28;20049;-75
2022/12/06 06:10:23;;;;;;;5.03;2.03;;;2.30;99.90;;;;;;5031383;28;20242;-73
2022/12/06 06:12:49;;;;;;;19.73;2.20;;;2.30;99.90;;;;;;5013900;28;20135;-72
2022/12/06 06:15:15;;;;;;;7.45;2.22;;;2.30;99.90;;;;;;5029878;28;20568;-73
2022/12/06 06:17:42;;;;;;;4.68;2.10;;;2.30;99.90;;;;;;5031489;28;20079;-73
2022/12/06 06:20:12;;;;;;;5.18;2.03;;;2.20;99.90;;;;;;5031259;28;20563;-72
2022/12/06 06:22:39;;;;;;;91.50;3.97;;;2.20;99.90;;;;;;5031123;28;20064;-72
2022/12/06 06:25:06;;;;;;;67.05;3.58;;;2.10;99.90;;;;;;5011946;28;20049;-72
2022/12/06 06:27:35;;;;;;;3.25;1.48;;;2.10;99.90;;;;;;5031573;28;20056;-72
2022/12/06 06:30:02;;;;;;;3.72;1.70;;;2.10;99.90;;;;;;5013244;28;20053;-73
2022/12/06 06:32:28;;;;;;;4.32;1.95;;;2.10;99.90;;;;;;5011945;28;20100;-74
2022/12/06 06:34:53;;;;;;;3.53;1.90;;;2.10;99.90;;;;;;4993475;28;20085;-74
2022/12/06 06:37:19;;;;;;;4.95;2.00;;;2.10;99.90;;;;;;5012145;28;20104;-73
2022/12/06 06:39:44;;;;;;;5.20;2.55;;;2.10;99.90;;;;;;5011276;28;20053;-72
2022/12/06 06:42:10;;;;;;;7.05;2.97;;;2.60;99.90;;;;;;5011269;28;20053;-73
2022/12/06 06:44:36;;;;;;;8.05;3.00;;;2.00;99.90;;;;;;4993615;28;20063;-73
2022/12/06 06:47:01;;;;;;;5.93;2.92;;;2.00;99.90;;;;;;5012162;28;20056;-72
2022/12/06 06:49:27;;;;;;;5.57;3.15;;;2.00;99.90;;;;;;5011252;28;20096;-72
2022/12/06 06:51:52;;;;;;;7.93;3.47;;;2.00;99.90;;;;;;4993697;28;20054;-72
2022/12/06 06:54:18;;;;;;;11.68;4.00;;;2.00;99.90;;;;;;5010893;28;20067;-72
2022/12/06 06:56:44;;;;;;;7.22;3.42;;;2.00;99.90;;;;;;5012301;28;20041;-71
2022/12/06 06:59:09;;;;;;;7.68;3.40;;;2.00;99.90;;;;;;4993379;28;20045;-72
2022/12/06 07:01:35;;;;;;;8.40;3.83;;;2.00;99.90;;;;;;5023324;28;20385;-72
2022/12/06 07:04:01;;;;;;;7.95;3.28;;;2.00;99.90;;;;;;5012837;28;20049;-73
2022/12/06 07:06:27;;;;;;;6.13;2.58;;;1.90;99.90;;;;;;5014382;28;20068;-72
2022/12/06 07:08:52;;;;;;;5.95;2.90;;;1.80;99.90;;;;;;5011594;28;20042;-73
2022/12/06 07:11:18;;;;;;;4.07;2.20;;;1.70;99.90;;;;;;5010617;28;20053;-72
2022/12/06 07:13:44;;;;;;;4.60;2.33;;;1.70;99.90;;;;;;4993095;28;20115;-72
2022/12/06 07:16:15;;;;;;;5.15;2.28;;;1.50;99.90;;;;;;5012167;28;20465;-72
2022/12/06 07:18:42;;;;;;;3.25;1.92;;;1.50;99.90;;;;;;5028814;28;20063;-72
2022/12/06 07:21:09;;;;;;;6.10;2.00;;;1.50;99.90;;;;;;5012819;28;20046;-72
2022/12/06 07:23:35;;;;;;;5.05;2.17;;;1.40;99.90;;;;;;5012695;28;20119;-72
2022/12/06 07:26:08;;;;;;;4.10;2.20;;;1.40;99.90;;;;;;5030052;28;20148;-72
2022/12/06 07:28:35;;;;;;;5.47;2.40;;;1.40;99.90;;;;;;5010972;28;20080;-71
2022/12/06 07:31:11;;;;;;;4.45;2.40;;;1.40;99.90;;;;;;5029636;28;20700;-73
2022/12/06 07:33:37;;;;;;;6.18;2.42;;;1.40;99.90;;;;;;5012484;28;20056;-71
2022/12/06 07:36:03;;;;;;;6.47;2.47;;;1.40;99.90;;;;;;5011851;28;20061;-73
2022/12/06 07:38:29;;;;;;;4.85;2.80;;;1.40;99.90;;;;;;5029826;28;20045;-72
2022/12/06 07:44:59;;;;;;;7.65;2.85;;;1.40;99.90;;;;;;5028249;28;20037;-73
2022/12/06 07:46:33;;;;;;;6.63;2.80;;;1.40;99.90;;;;;;5029426;28;20057;-72
2022/12/06 07:48:59;;;;;;;5.00;2.70;;;1.40;99.90;;;;;;5011774;28;20060;-72
2022/12/06 07:51:24;;;;;;;6.93;3.13;;;1.40;99.90;;;;;;5010402;28;20049;-73
2022/12/06 07:53:50;;;;;;;5.80;2.50;;;1.40;99.90;;;;;;5029832;28;20148;-72
2022/12/06 07:56:16;;;;;;;6.18;2.50;;;1.40;99.90;;;;;;5012239;28;20084;-74
2022/12/06 07:58:41;;;;;;;4.82;2.20;;;1.40;99.90;;;;;;5029853;28;20052;-73
2022/12/06 08:01:07;;;;;;;5.35;2.70;;;1.40;99.90;;;;;;5007955;28;20041;-72
2022/12/06 08:03:32;;;;;;;3.40;1.65;;;1.40;99.90;;;;;;5030141;28;20049;-72
2022/12/06 08:05:58;;;;;;;4.43;1.98;;;1.40;99.90;;;;;;5011880;28;20045;-73
2022/12/06 08:08:24;;;;;;;5.75;2.78;;;1.40;99.90;;;;;;5012141;28;20044;-73
2022/12/06 08:10:49;;;;;;;5.03;2.88;;;1.50;99.90;;;;;;5011091;28;20447;-74
2022/12/06 08:13:15;;;;;;;6.05;3.28;;;1.50;99.90;;;;;;4999822;28;20389;-73
2022/12/06 08:15:40;;;;;;;8.00;3.10;;;1.50;99.90;;;;;;5015001;28;20053;-72
2022/12/06 08:18:06;;;;;;;6.85;3.28;;;1.60;99.90;;;;;;5019673;28;20707;-74
2022/12/06 08:20:32;;;;;;;9.13;2.80;;;1.60;99.90;;;;;;4977727;28;20573;-72
2022/12/06 08:22:57;;;;;;;9.35;3.50;;;1.60;99.90;;;;;;4999575;28;20045;-72
2022/12/06 08:25:23;;;;;;;5.90;3.38;;;1.70;99.90;;;;;;5013636;28;20068;-74
2022/12/06 08:27:48;;;;;;;5.55;3.10;;;2.10;99.90;;;;;;5014763;28;20053;-73
2022/12/06 08:30:14;;;;;;;6.18;3.00;;;1.80;99.90;;;;;;5013537;28;20150;-73
2022/12/06 08:32:40;;;;;;;6.60;3.25;;;1.90;99.90;;;;;;4995909;28;20486;-75
2022/12/06 08:35:06;;;;;;;12.00;3.72;;;1.90;99.90;;;;;;5014647;28;20046;-73
2022/12/06 08:37:33;;;;;;;5.05;3.20;;;2.00;99.90;;;;;;5013595;28;20413;-73
2022/12/06 08:39:58;;;;;;;8.98;3.60;;;2.00;99.90;;;;;;5013345;28;20053;-73
2022/12/06 08:42:24;;;;;;;7.88;3.20;;;2.10;99.90;;;;;;4996062;28;20453;-74
2022/12/06 08:44:53;;;;;;;6.47;3.05;;;2.10;99.90;;;;;;5014299;28;20053;-74
2022/12/06 08:47:18;;;;;;;9.57;3.38;;;2.60;99.90;;;;;;4995652;28;20049;-74
2022/12/06 08:49:45;;;;;;;8.15;3.38;;;2.20;99.90;;;;;;4995700;28;20068;-73
2022/12/06 08:52:10;;;;;;;10.40;3.80;;;2.30;99.90;;;;;;4995510;28;20037;-74
2022/12/06 08:54:38;;;;;;;7.75;3.60;;;2.30;99.90;;;;;;4995801;28;20553;-75
2022/12/06 08:57:03;;;;;;;8.27;3.30;;;2.40;99.90;;;;;;5013778;28;20563;-73
2022/12/06 08:59:29;;;;;;;6.93;3.63;;;2.40;99.90;;;;;;5016414;28;20078;-74
2022/12/06 09:01:54;;;;;;;11.45;4.20;;;2.50;99.90;;;;;;5029267;28;20049;-72
2022/12/06 09:04:20;;;;;;;9.13;3.63;;;2.60;99.90;;;;;;5001186;28;20079;-73
2022/12/06 09:06:46;;;;;;;9.88;4.15;;;2.60;99.90;;;;;;5031446;28;20525;-72
2022/12/06 09:09:14;;;;;;;13.00;4.85;;;2.70;99.90;;;;;;5031893;28;20053;-72
2022/12/06 09:11:41;;;;;;;9.75;4.03;;;2.80;99.90;;;;;;5032875;28;20119;-74
2022/12/06 09:14:08;;;;;;;10.32;4.15;;;2.80;99.90;;;;;;5032835;28;20484;-75
2022/12/06 09:16:34;;;;;;;9.93;4.43;;;2.90;99.90;;;;;;5028057;28;20128;-72
2022/12/06 09:18:59;;;;;;;11.20;4.60;;;2.90;99.90;;;;;;5013147;28;20456;-72
2022/12/06 09:21:29;;;;;;;10.88;4.22;;;3.00;99.90;;;;;;4994786;28;20042;-72
2022/12/06 09:23:56;;;;;;;10.07;4.60;;;3.00;99.90;;;;;;5003933;28;20133;-73
2022/12/06 09:26:23;;;;;;;8.43;4.25;;;3.10;99.90;;;;;;5014565;28;20559;-76
2022/12/06 09:28:49;;;;;;;8.80;4.38;;;3.10;99.90;;;;;;5033075;28;20038;-74
2022/12/06 09:31:16;;;;;;;10.15;4.43;;;3.20;99.90;;;;;;5031939;28;20137;-75
2022/12/06 09:33:42;;;;;;;11.55;4.18;;;3.20;99.90;;;;;;5030621;28;20053;-74
2022/12/06 09:36:13;;;;;;;11.30;3.90;;;3.20;99.90;;;;;;5022548;28;20045;-75
2022/12/06 09:38:41;;;;;;;11.35;3.45;;;3.30;99.90;;;;;;5015132;28;20116;-73
2022/12/06 09:41:24;;;;;;;7.90;3.42;;;3.30;99.90;;;;;;5015066;28;20389;-73
2022/12/06 09:44:09;;;;;;;8.70;3.67;;;3.40;99.90;;;;;;5032984;28;20057;-73
2022/12/06 09:46:41;;;;;;;8.52;3.53;;;3.50;99.90;;;;;;5031278;28;20140;-73
2022/12/06 09:49:32;;;;;;;17.20;4.53;;;3.60;99.90;;;;;;5015230;28;20060;-73
2022/12/06 09:52:23;;;;;;;8.98;3.95;;;3.80;99.90;;;;;;5014626;28;20060;-73
2022/12/06 09:55:04;;;;;;;13.60;3.97;;;4.00;99.90;;;;;;5032586;28;20053;-73
2022/12/06 09:57:44;;;;;;;8.70;4.20;;;4.20;99.90;;;;;;5032583;28;20049;-73
2022/12/06 10:00:14;;;;;;;12.20;4.45;;;4.40;99.90;;;;;;5014308;28;20357;-74
2022/12/06 10:02:57;;;;;;;10.70;4.05;;;4.60;99.90;;;;;;5014782;28;20049;-74
2022/12/06 10:05:23;;;;;;;8.93;4.47;;;4.90;99.90;;;;;;4998219;28;20050;-73
2022/12/06 10:08:13;;;;;;;9.35;4.07;;;5.00;99.90;;;;;;5022488;28;20393;-75
2022/12/06 10:11:02;;;;;;;8.20;2.90;;;5.10;99.90;;;;;;4994284;28;20049;-75
2022/12/06 10:14:02;;;;;;;11.15;3.08;;;5.10;99.90;;;;;;5012489;28;20050;-74
2022/12/06 10:16:45;;;;;;;10.85;3.33;;;5.20;99.90;;;;;;4977929;28;20084;-73
2022/12/06 10:19:38;;;;;;;5.15;2.47;;;5.20;99.90;;;;;;5013428;28;20042;-73
2022/12/06 10:22:25;;;;;;;9.95;2.60;;;5.30;99.90;;;;;;4994620;28;20045;-73
2022/12/06 10:25:14;;;;;;;5.32;2.40;;;5.30;99.90;;;;;;5011962;28;20038;-73
2022/12/06 10:28:05;;;;;;;8.35;2.75;;;5.30;99.90;;;;;;5009227;28;20049;-74
2022/12/06 10:30:35;;;;;;;7.13;2.50;;;5.30;99.90;;;;;;5011717;28;20053;-73
2022/12/06 10:33:10;;;;;;;8.35;2.55;;;5.40;99.90;;;;;;5011368;28;20125;-72
2022/12/06 10:35:54;;;;;;;7.07;2.33;;;5.40;99.90;;;;;;5011616;28;20055;-73
2022/12/06 10:38:35;;;;;;;4.85;2.60;;;5.40;99.90;;;;;;4993409;28;20060;-73
2022/12/06 10:41:29;;;;;;;6.53;2.63;;;5.50;99.90;;;;;;5011126;28;20049;-74
2022/12/06 10:44:23;;;;;;;5.85;2.10;;;5.50;99.90;;;;;;4993993;28;20097;-74
2022/12/06 10:47:05;;;;;;;6.72;2.38;;;5.60;99.90;;;;;;5010908;28;20068;-74
2022/12/06 10:49:40;;;;;;;6.47;1.98;;;5.70;99.90;;;;;;5011268;28;20093;-74
2022/12/06 10:52:23;;;;;;;4.70;2.08;;;5.70;99.90;;;;;;5011290;28;20057;-73
2022/12/06 10:55:01;;;;;;;6.22;2.25;;;5.80;99.90;;;;;;4993484;28;20056;-74
2022/12/06 10:58:00;;;;;;;5.25;2.55;;;5.90;99.90;;;;;;5011094;28;20100;-73
2022/12/06 11:00:29;;;;;;;6.25;2.25;;;6.20;99.90;;;;;;4993593;28;20049;-73
2022/12/06 11:03:20;;;;;;;8.48;2.85;;;6.30;99.90;;;;;;5011048;28;20054;-73
2022/12/06 11:05:57;;;;;;;6.90;2.80;;;6.40;99.90;;;;;;5011280;28;20390;-73
2022/12/06 11:08:36;;;;;;;8.13;2.67;;;6.50;99.90;;;;;;5005163;28;20422;-73
2022/12/06 11:11:05;;;;;;;5.43;2.42;;;6.50;99.90;;;;;;4990873;28;20486;-73
2022/12/06 11:13:41;;;;;;;5.72;2.58;;;6.50;99.90;;;;;;4991205;28;20058;-73
2022/12/06 11:16:21;;;;;;;7.55;2.00;;;6.50;99.90;;;;;;4973743;28;20050;-73
2022/12/06 11:18:48;;;;;;;6.47;2.45;;;6.50;99.90;;;;;;4991102;28;20524;-74
2022/12/06 11:21:42;;;;;;;5.68;2.78;;;6.40;99.90;;;;;;4990963;28;20054;-73
2022/12/06 11:24:35;;;;;;;6.35;2.80;;;6.40;99.90;;;;;;4991448;28;20074;-73
2022/12/06 11:27:25;;;;;;;4.95;2.25;;;6.40;99.90;;;;;;5004420;28;20045;-73
2022/12/06 11:29:52;;;;;;;7.38;2.83;;;6.40;99.90;;;;;;4976182;28;20402;-74
2022/12/06 11:32:18;;;;;;;11.63;3.20;;;6.30;99.90;;;;;;4994532;28;20046;-73
2022/12/06 11:34:50;;;;;;;4.57;2.50;;;6.30;99.90;;;;;;5010681;28;20054;-73
2022/12/06 11:37:19;;;;;;;6.93;2.20;;;6.40;99.90;;;;;;5008176;28;20163;-73
2022/12/06 11:39:46;;;;;;;9.52;2.40;;;6.30;99.90;;;;;;5014995;28;20045;-74
2022/12/06 11:42:17;;;;;;;4.80;2.17;;;6.30;99.90;;;;;;5029735;28;20136;-73
2022/12/06 11:44:47;;;;;;;5.60;1.98;;;6.40;99.90;;;;;;4998926;28;20050;-73
2022/12/06 11:47:20;;;;;;;6.43;1.67;;;6.40;99.90;;;;;;5009925;28;20124;-73
2022/12/06 11:49:47;;;;;;;6.47;2.05;;;6.30;99.90;;;;;;5011927;28;20053;-73
2022/12/06 11:52:20;;;;;;;6.82;1.80;;;6.30;99.90;;;;;;5011890;28;20049;-74
2022/12/06 11:54:56;;;;;;;5.65;1.90;;;6.70;99.90;;;;;;5021292;28;20061;-77
2022/12/06 11:57:30;;;;;;;6.45;1.92;;;6.30;99.90;;;;;;4995520;28;20694;-74
2022/12/06 12:00:07;;;;;;;6.55;1.70;;;6.30;99.90;;;;;;5029315;28;20053;-73
2022/12/06 12:02:33;;;;;;;6.20;1.90;;;6.30;99.90;;;;;;5013016;28;20111;-75
2022/12/06 12:05:16;;;;;;;7.38;2.05;;;6.50;99.90;;;;;;4991831;28;20046;-73
2022/12/06 12:07:47;;;;;;;8.93;2.25;;;6.60;99.90;;;;;;4997807;28;20489;-75
2022/12/06 12:10:22;;;;;;;6.68;1.98;;;6.60;99.90;;;;;;5010453;28;20401;-74
2022/12/06 12:15:34;;;;;;;5.07;2.08;;;6.60;99.90;;;;;;5012996;28;20453;-73
2022/12/06 12:18:01;;;;;;;5.68;2.30;;;6.60;99.90;;;;;;5010273;28;20060;-75
2022/12/06 12:20:31;;;;;;;8.38;2.00;;;6.50;99.90;;;;;;5010019;28;20181;-73
2022/12/06 12:23:02;;;;;;;6.05;1.85;;;6.50;99.90;;;;;;5013176;28;20064;-74
2022/12/06 12:25:33;;;;;;;8.68;2.35;;;6.50;99.90;;;;;;5029413;28;20045;-73
2022/12/06 12:28:21;;;;;;;7.55;2.08;;;6.50;99.90;;;;;;5027802;28;20673;-73
2022/12/06 12:30:55;;;;;;;3.80;1.65;;;6.50;99.90;;;;;;5011738;28;20104;-73
2022/12/06 12:33:23;;;;;;;7.23;1.70;;;6.50;99.90;;;;;;5029198;28;20061;-74
2022/12/06 12:35:54;;;;;;;5.85;1.80;;;6.50;99.90;;;;;;5011959;28;20284;-74
2022/12/06 12:38:43;;;;;;;10.18;1.75;;;6.40;99.90;;;;;;5025020;28;20054;-74
2022/12/06 12:41:21;;;;;;;6.05;2.13;;;6.40;99.90;;;;;;5029296;28;20086;-73
2022/12/06 12:44:11;;;;;;;7.25;2.20;;;6.40;99.90;;;;;;5029510;28;20701;-73
2022/12/06 12:46:41;;;;;;;5.95;1.83;;;6.30;99.90;;;;;;5004960;28;20429;-75
2022/12/06 12:49:24;;;;;;;8.35;1.95;;;6.30;99.90;;;;;;5009611;28;20049;-73
2022/12/06 12:51:50;;;;;;;5.88;2.00;;;6.40;99.90;;;;;;5009838;28;20072;-75
2022/12/06 12:54:24;;;;;;;4.97;1.80;;;6.30;99.90;;;;;;4991827;28;20045;-74
2022/12/06 12:56:50;;;;;;;7.63;2.13;;;6.30;99.90;;;;;;5002050;28;20061;-73
2022/12/06 12:59:19;;;;;;;5.93;1.90;;;6.40;99.90;;;;;;4994953;28;20050;-75
2022/12/06 13:01:56;;;;;;;4.93;1.75;;;6.40;99.90;;;;;;5013486;28;20124;-73
2022/12/06 13:04:36;;;;;;;5.95;1.63;;;6.40;99.90;;;;;;5029257;28;20451;-73
2022/12/06 13:07:10;;;;;;;8.00;2.00;;;6.40;99.90;;;;;;5032556;28;20052;-76
2022/12/06 13:10:02;;;;;;;4.93;1.50;;;6.40;99.90;;;;;;5014261;28;20053;-76
2022/12/06 13:12:54;;;;;;;6.78;1.58;;;6.40;99.90;;;;;;4987077;28;20058;-73
2022/12/06 13:15:32;;;;;;;3.45;1.70;;;6.40;99.90;;;;;;5013054;28;20056;-74
2022/12/06 13:18:20;;;;;;;4.57;1.73;;;6.50;99.90;;;;;;4999954;28;20128;-72
2022/12/06 13:20:48;;;;;;;4.65;1.90;;;6.50;99.90;;;;;;4994940;28;20132;-73
2022/12/06 13:23:23;;;;;;;6.88;1.60;;;6.60;99.90;;;;;;4995080;28;20065;-73
2022/12/06 13:26:05;;;;;;;;;;;6.60;99.90;;;;;;4995423;28;20061;-73
2022/12/06 13:28:38;;;;;;;4.55;1.98;;;6.60;99.90;;;;;;5012598;28;19928;-73
2022/12/06 13:31:10;;;;;;;5.80;1.40;;;6.50;99.90;;;;;;5012539;28;20056;-73
2022/12/06 13:33:44;;;;;;;4.28;1.55;;;6.50;99.90;;;;;;5012575;28;20122;-74
2022/12/06 13:36:12;;;;;;;3.50;1.60;;;6.50;99.90;;;;;;5011395;28;20389;-73
2022/12/06 13:38:39;;;;;;;5.40;1.67;;;6.50;99.90;;;;;;4994531;28;20058;-74